sensor_id;sensor_type;location;lat;lon;timestamp;temperature;humidity
10010;DHT22;5044;48.652;9.250;2023-04-24T05:59:36;8.60;99.90
10010;DHT22;5044;48.652;9.250;2023-04-24T06:02:23;8.60;99.90
10010;DHT22;5044;48.652;9.250;2023-04-24T06:04:51;8.60;99.90
10010;DHT22;5044;48.652;9.250;2023-04-24T06:07:40;8.70;99.90
10010;DHT22;5044;48.652;9.250;2023-04-24T06:12:45;8.70;99.90
10010;DHT22;5044;48.652;9.250;2023-04-24T06:15:13;8.80;99.90
10010;DHT22;5044;48.652;9.250;2023-04-24T06:17:43;8.90;99.90
10010;DHT22;5044;48.652;9.250;2023-04-24T06:20:12;8.80;99.90
10010;DHT22;5044;48.652;9.250;2023-04-24T06:22:40;9.00;99.90
10010;DHT22;5044;48.652;9.250;2023-04-24T06:25:10;9.10;99.90
10010;DHT22;5044;48.652;9.250;2023-04-24T06:27:37;9.10;99.90
10010;DHT22;5044;48.652;9.250;2023-04-24T06:30:05;9.30;99.90
10010;DHT22;5044;48.652;9.250;2023-04-24T06:32:35;9.50;99.90
10010;DHT22;5044;48.652;9.250;2023-04-24T06:35:18;9.90;99.90
10010;DHT22;5044;48.652;9.250;2023-04-24T06:37:47;9.90;99.90
10010;DHT22;5044;48.652;9.250;2023-04-24T06:40:29;10.00;99.90
10010;DHT22;5044;48.652;9.250;2023-04-24T06:43:14;10.30;99.90
10010;DHT22;5044;48.652;9.250;2023-04-24T06:45:49;10.60;99.90
10010;DHT22;5044;48.652;9.250;2023-04-24T06:48:28;10.90;99.90
10010;DHT22;5044;48.652;9.250;2023-04-24T06:51:17;11.20;99.90
10010;DHT22;5044;48.652;9.250;2023-04-24T06:53:56;11.30;99.90
10010;DHT22;5044;48.652;9.250;2023-04-24T06:56:43;11.60;99.90
10010;DHT22;5044;48.652;9.250;2023-04-24T07:02:25;12.20;99.90
10010;DHT22;5044;48.652;9.250;2023-04-24T07:05:07;12.70;99.90
10010;DHT22;5044;48.652;9.250;2023-04-24T07:07:57;13.30;99.90
10010;DHT22;5044;48.652;9.250;2023-04-24T07:10:45;12.90;99.90
10010;DHT22;5044;48.652;9.250;2023-04-24T07:13:21;13.20;99.90
10010;DHT22;5044;48.652;9.250;2023-04-24T07:16:10;13.20;99.90
10010;DHT22;5044;48.652;9.250;2023-04-24T07:18:55;13.00;99.90
10010;DHT22;5044;48.652;9.250;2023-04-24T07:25:21;12.70;99.90
10010;DHT22;5044;48.652;9.250;2023-04-24T07:28:00;12.70;99.90
10010;DHT22;5044;48.652;9.250;2023-04-24T07:30:37;12.60;99.90
10010;DHT22;5044;48.652;9.250;2023-04-24T07:33:07;12.40;99.90
10010;DHT22;5044;48.652;9.250;2023-04-24T07:35:38;12.30;99.90
10010;DHT22;5044;48.652;9.250;2023-04-24T07:38:18;11.60;99.90
10010;DHT22;5044;48.652;9.250;2023-04-24T07:40:50;10.90;99.90
10010;DHT22;5044;48.652;9.250;2023-04-24T07:43:20;10.90;99.90
10010;DHT22;5044;48.652;9.250;2023-04-24T07:45:47;10.80;99.90
10010;DHT22;5044;48.652;9.250;2023-04-24T07:48:18;10.80;99.90
10010;DHT22;5044;48.652;9.250;2023-04-24T07:50:48;11.30;99.90
10010;DHT22;5044;48.652;9.250;2023-04-24T07:53:22;11.50;99.90
10010;DHT22;5044;48.652;9.250;2023-04-24T07:55:56;11.50;99.90
10010;DHT22;5044;48.652;9.250;2023-04-24T07:58:23;11.80;99.90
10010;DHT22;5044;48.652;9.250;2023-04-24T08:00:55;12.00;99.90
10010;DHT22;5044;48.652;9.250;2023-04-24T08:03:28;12.30;99.90
10010;DHT22;5044;48.652;9.250;2023-04-24T08:08:55;12.10;99.90
10010;DHT22;5044;48.652;9.250;2023-04-24T08:11:33;12.40;99.90
10010;DHT22;5044;48.652;9.250;2023-04-24T08:14:00;12.90;99.90
10010;DHT22;5044;48.652;9.250;2023-04-24T08:16:32;12.80;99.90
10010;DHT22;5044;48.652;9.250;2023-04-24T08:19:08;12.90;98.60
10010;DHT22;5044;48.652;9.250;2023-04-24T08:21:41;12.50;99.90
10010;DHT22;5044;48.652;9.250;2023-04-24T08:24:33;12.20;97.00
10010;DHT22;5044;48.652;9.250;2023-04-24T08:27:03;11.30;97.70
10010;DHT22;5044;48.652;9.250;2023-04-24T08:29:39;11.40;99.10
10010;DHT22;5044;48.652;9.250;2023-04-24T08:35:25;11.50;95.70
10010;DHT22;5044;48.652;9.250;2023-04-24T08:38:11;11.80;99.10
10010;DHT22;5044;48.652;9.250;2023-04-24T08:40:58;12.10;97.30
10010;DHT22;5044;48.652;9.250;2023-04-24T08:43:54;11.70;99.10
10010;DHT22;5044;48.652;9.250;2023-04-24T08:46:36;11.80;99.90
10010;DHT22;5044;48.652;9.250;2023-04-24T08:49:31;11.70;98.40
10010;DHT22;5044;48.652;9.250;2023-04-24T08:52:22;11.90;96.30
10010;DHT22;5044;48.652;9.250;2023-04-24T08:55:25;12.10;96.00
10010;DHT22;5044;48.652;9.250;2023-04-24T09:01:19;12.40;93.60
10010;DHT22;5044;48.652;9.250;2023-04-24T09:03:58;12.70;96.20
10010;DHT22;5044;48.652;9.250;2023-04-24T09:06:52;12.50;93.30
10010;DHT22;5044;48.652;9.250;2023-04-24T09:09:45;11.90;92.80
10010;DHT22;5044;48.652;9.250;2023-04-24T09:12:43;12.10;89.00
10010;DHT22;5044;48.652;9.250;2023-04-24T09:15:42;12.10;90.80
10010;DHT22;5044;48.652;9.250;2023-04-24T09:18:18;11.90;83.40
10010;DHT22;5044;48.652;9.250;2023-04-24T09:21:38;12.60;87.40
10010;DHT22;5044;48.652;9.250;2023-04-24T09:24:40;13.00;77.80
10010;DHT22;5044;48.652;9.250;2023-04-24T09:31:11;13.80;79.20
10010;DHT22;5044;48.652;9.250;2023-04-24T09:33:56;13.60;69.50
10010;DHT22;5044;48.652;9.250;2023-04-24T09:36:50;12.40;67.40
10010;DHT22;5044;48.652;9.250;2023-04-24T09:39:36;12.60;71.60
10010;DHT22;5044;48.652;9.250;2023-04-24T09:42:32;13.00;70.20
10010;DHT22;5044;48.652;9.250;2023-04-24T09:52:17;13.50;65.50
10010;DHT22;5044;48.652;9.250;2023-04-24T10:11:49;13.80;56.80
10010;DHT22;5044;48.652;9.250;2023-04-24T10:14:26;13.50;56.90
10010;DHT22;5044;48.652;9.250;2023-04-24T10:17:09;13.70;59.70
10010;DHT22;5044;48.652;9.250;2023-04-24T10:19:48;13.10;58.90
10010;DHT22;5044;48.652;9.250;2023-04-24T10:22:24;12.70;58.30
10010;DHT22;5044;48.652;9.250;2023-04-24T10:25:16;13.90;64.70
10010;DHT22;5044;48.652;9.250;2023-04-24T10:28:21;14.00;58.70
10010;DHT22;5044;48.652;9.250;2023-04-24T10:31:13;14.10;57.60
10010;DHT22;5044;48.652;9.250;2023-04-24T10:34:12;14.20;56.20
10010;DHT22;5044;48.652;9.250;2023-04-24T10:40:33;15.40;57.40
10010;DHT22;5044;48.652;9.250;2023-04-24T11:02:56;13.20;59.60
10010;DHT22;5044;48.652;9.250;2023-04-24T11:05:59;13.50;62.90
10010;DHT22;5044;48.652;9.250;2023-04-24T11:09:33;14.10;63.50
10010;DHT22;5044;48.652;9.250;2023-04-24T11:15:04;14.10;65.30
10010;DHT22;5044;48.652;9.250;2023-04-24T11:28:52;14.90;59.50
10010;DHT22;5044;48.652;9.250;2023-04-24T11:31:58;14.90;58.20
10010;DHT22;5044;48.652;9.250;2023-04-24T11:35:12;14.30;59.00
10010;DHT22;5044;48.652;9.250;2023-04-24T11:38:04;14.70;61.50
10010;DHT22;5044;48.652;9.250;2023-04-24T11:40:56;13.90;58.30
10010;DHT22;5044;48.652;9.250;2023-04-24T11:58:11;13.40;63.40
10010;DHT22;5044;48.652;9.250;2023-04-24T12:03:11;13.30;61.50
10010;DHT22;5044;48.652;9.250;2023-04-24T12:08:09;13.90;64.60
10010;DHT22;5044;48.652;9.250;2023-04-24T12:09:26;13.60;62.00
10010;DHT22;5044;48.652;9.250;2023-04-24T12:15:31;13.40;63.00
10010;DHT22;5044;48.652;9.250;2023-04-24T12:22:13;13.90;60.10
10010;DHT22;5044;48.652;9.250;2023-04-24T12:25:13;13.40;61.30
10010;DHT22;5044;48.652;9.250;2023-04-24T18:27:10;10.80;81.80
10010;DHT22;5044;48.652;9.250;2023-04-24T18:29:37;10.80;82.50
10010;DHT22;5044;48.652;9.250;2023-04-24T18:36:08;10.70;83.20
10010;DHT22;5044;48.652;9.250;2023-04-24T18:39:35;10.40;83.90
10010;DHT22;5044;48.652;9.250;2023-04-24T18:58:57;9.90;91.30
10010;DHT22;5044;48.652;9.250;2023-04-24T19:01:31;10.00;90.90
10010;DHT22;5044;48.652;9.250;2023-04-24T19:04:11;9.80;91.90
10010;DHT22;5044;48.652;9.250;2023-04-24T19:06:41;9.70;93.00
10010;DHT22;5044;48.652;9.250;2023-04-24T19:09:11;9.60;93.00
10010;DHT22;5044;48.652;9.250;2023-04-24T19:11:52;9.50;92.80
10010;DHT22;5044;48.652;9.250;2023-04-24T19:14:21;9.50;92.60
10010;DHT22;5044;48.652;9.250;2023-04-24T19:16:49;9.80;93.30
10010;DHT22;5044;48.652;9.250;2023-04-24T19:19:16;9.50;93.20
10010;DHT22;5044;48.652;9.250;2023-04-24T19:21:44;9.40;93.60
10010;DHT22;5044;48.652;9.250;2023-04-24T19:24:23;9.30;95.00
10010;DHT22;5044;48.652;9.250;2023-04-24T19:27:09;9.30;95.40
10010;DHT22;5044;48.652;9.250;2023-04-24T19:29:40;9.30;96.60
10010;DHT22;5044;48.652;9.250;2023-04-24T19:32:09;9.30;95.50
10010;DHT22;5044;48.652;9.250;2023-04-24T19:34:37;9.20;95.70
10010;DHT22;5044;48.652;9.250;2023-04-24T19:37:05;9.20;95.60
10010;DHT22;5044;48.652;9.250;2023-04-24T19:39:34;9.10;97.50
10010;DHT22;5044;48.652;9.250;2023-04-24T19:42:03;9.10;98.20
10010;DHT22;5044;48.652;9.250;2023-04-24T19:44:32;9.00;99.90
10010;DHT22;5044;48.652;9.250;2023-04-24T19:47:06;8.90;98.90
10010;DHT22;5044;48.652;9.250;2023-04-24T19:49:40;9.00;97.60
10010;DHT22;5044;48.652;9.250;2023-04-24T19:52:13;9.00;97.30
10010;DHT22;5044;48.652;9.250;2023-04-24T19:54:43;9.10;95.20
10010;DHT22;5044;48.652;9.250;2023-04-24T19:57:13;9.10;94.60
10010;DHT22;5044;48.652;9.250;2023-04-24T19:59:42;9.30;94.80
10010;DHT22;5044;48.652;9.250;2023-04-24T20:02:17;9.20;93.50
10010;DHT22;5044;48.652;9.250;2023-04-24T20:04:50;9.20;95.40
10010;DHT22;5044;48.652;9.250;2023-04-24T20:07:21;9.10;94.10
10010;DHT22;5044;48.652;9.250;2023-04-24T20:09:51;9.20;94.20
10010;DHT22;5044;48.652;9.250;2023-04-24T20:12:20;9.10;94.90
10010;DHT22;5044;48.652;9.250;2023-04-24T20:14:49;9.10;94.00
10010;DHT22;5044;48.652;9.250;2023-04-24T20:17:28;9.10;95.90
10010;DHT22;5044;48.652;9.250;2023-04-24T20:19:57;9.00;95.80
10010;DHT22;5044;48.652;9.250;2023-04-24T20:22:29;8.90;94.40
10010;DHT22;5044;48.652;9.250;2023-04-24T20:25:04;8.90;94.50
10010;DHT22;5044;48.652;9.250;2023-04-24T20:27:33;8.90;93.90
10010;DHT22;5044;48.652;9.250;2023-04-24T20:30:03;8.80;97.40
10010;DHT22;5044;48.652;9.250;2023-04-24T20:32:39;8.80;95.40
10010;DHT22;5044;48.652;9.250;2023-04-24T20:35:07;8.80;95.60
10010;DHT22;5044;48.652;9.250;2023-04-24T20:37:42;8.60;95.90
10010;DHT22;5044;48.652;9.250;2023-04-24T20:40:15;8.50;97.20
10010;DHT22;5044;48.652;9.250;2023-04-24T20:42:47;8.40;99.90
10010;DHT22;5044;48.652;9.250;2023-04-24T20:45:23;8.30;98.30
10010;DHT22;5044;48.652;9.250;2023-04-24T20:47:57;8.30;96.60
10010;DHT22;5044;48.652;9.250;2023-04-24T20:50:42;8.30;94.40
10010;DHT22;5044;48.652;9.250;2023-04-24T20:53:20;8.30;95.50
10010;DHT22;5044;48.652;9.250;2023-04-24T20:55:51;8.00;94.70
10010;DHT22;5044;48.652;9.250;2023-04-24T20:58:27;8.20;95.60
10010;DHT22;5044;48.652;9.250;2023-04-24T21:01:01;8.10;95.40
10010;DHT22;5044;48.652;9.250;2023-04-24T21:03:40;8.00;96.10
10010;DHT22;5044;48.652;9.250;2023-04-24T21:06:18;8.00;99.90
10010;DHT22;5044;48.652;9.250;2023-04-24T21:08:50;8.00;99.90
10010;DHT22;5044;48.652;9.250;2023-04-24T21:11:20;7.80;99.90
10010;DHT22;5044;48.652;9.250;2023-04-24T21:13:51;7.80;99.90
10010;DHT22;5044;48.652;9.250;2023-04-24T21:16:22;7.90;99.90
10010;DHT22;5044;48.652;9.250;2023-04-24T21:19:00;7.60;99.90
10010;DHT22;5044;48.652;9.250;2023-04-24T21:21:38;7.60;96.60
10010;DHT22;5044;48.652;9.250;2023-04-24T21:24:14;7.60;99.90
10010;DHT22;5044;48.652;9.250;2023-04-24T21:26:47;7.40;99.90
10010;DHT22;5044;48.652;9.250;2023-04-24T21:29:19;7.30;99.90
10010;DHT22;5044;48.652;9.250;2023-04-24T21:31:52;7.30;99.90
10010;DHT22;5044;48.652;9.250;2023-04-24T21:34:31;7.20;99.90
10010;DHT22;5044;48.652;9.250;2023-04-24T21:37:01;7.20;97.60
10010;DHT22;5044;48.652;9.250;2023-04-24T21:39:30;7.10;97.90
10010;DHT22;5044;48.652;9.250;2023-04-24T21:41:58;7.30;96.50
10010;DHT22;5044;48.652;9.250;2023-04-24T21:44:27;7.10;95.00
10010;DHT22;5044;48.652;9.250;2023-04-24T21:46:58;7.10;99.00
10010;DHT22;5044;48.652;9.250;2023-04-24T21:49:34;7.10;99.90
10010;DHT22;5044;48.652;9.250;2023-04-24T21:52:03;7.10;97.40
10010;DHT22;5044;48.652;9.250;2023-04-24T21:54:31;7.10;99.90
10010;DHT22;5044;48.652;9.250;2023-04-24T21:56:59;7.20;95.90
10010;DHT22;5044;48.652;9.250;2023-04-24T21:59:29;7.00;99.70
10010;DHT22;5044;48.652;9.250;2023-04-24T22:01:58;7.10;99.90
10010;DHT22;5044;48.652;9.250;2023-04-24T22:04:29;7.20;99.90
10010;DHT22;5044;48.652;9.250;2023-04-24T22:07:00;7.10;96.90
10010;DHT22;5044;48.652;9.250;2023-04-24T22:09:28;7.60;94.80
10010;DHT22;5044;48.652;9.250;2023-04-24T22:11:56;6.90;99.90
10010;DHT22;5044;48.652;9.250;2023-04-24T22:14:26;7.10;97.90
10010;DHT22;5044;48.652;9.250;2023-04-24T22:16:54;7.10;94.90
10010;DHT22;5044;48.652;9.250;2023-04-24T22:19:26;7.20;98.90
10010;DHT22;5044;48.652;9.250;2023-04-24T22:22:03;7.10;97.60
10010;DHT22;5044;48.652;9.250;2023-04-24T22:24:31;7.20;99.90
10010;DHT22;5044;48.652;9.250;2023-04-24T22:26:59;7.20;99.90
10010;DHT22;5044;48.652;9.250;2023-04-24T22:29:29;7.00;96.20
10010;DHT22;5044;48.652;9.250;2023-04-24T22:31:56;7.10;96.30
10010;DHT22;5044;48.652;9.250;2023-04-24T22:34:25;7.10;99.90
10010;DHT22;5044;48.652;9.250;2023-04-24T22:36:53;7.10;94.70
10010;DHT22;5044;48.652;9.250;2023-04-24T22:39:24;7.10;97.00
10010;DHT22;5044;48.652;9.250;2023-04-24T22:41:53;7.10;98.70
10010;DHT22;5044;48.652;9.250;2023-04-24T22:44:22;7.20;97.50
10010;DHT22;5044;48.652;9.250;2023-04-24T22:46:50;7.10;97.90
10010;DHT22;5044;48.652;9.250;2023-04-24T22:49:17;7.40;99.10
10010;DHT22;5044;48.652;9.250;2023-04-24T22:51:46;6.90;94.60
10010;DHT22;5044;48.652;9.250;2023-04-24T22:54:13;7.10;94.90
10010;DHT22;5044;48.652;9.250;2023-04-24T22:56:45;7.10;95.40
10010;DHT22;5044;48.652;9.250;2023-04-24T22:59:13;7.30;94.70
10010;DHT22;5044;48.652;9.250;2023-04-24T23:01:40;7.20;94.90
10010;DHT22;5044;48.652;9.250;2023-04-24T23:04:08;7.20;93.70
10010;DHT22;5044;48.652;9.250;2023-04-24T23:06:38;7.10;93.50
10010;DHT22;5044;48.652;9.250;2023-04-24T23:09:08;7.10;98.40
10010;DHT22;5044;48.652;9.250;2023-04-24T23:11:40;7.10;93.90
10010;DHT22;5044;48.652;9.250;2023-04-24T23:14:09;7.10;94.70
10010;DHT22;5044;48.652;9.250;2023-04-24T23:16:37;6.90;94.20
10010;DHT22;5044;48.652;9.250;2023-04-24T23:19:08;7.10;92.90
10010;DHT22;5044;48.652;9.250;2023-04-24T23:21:38;7.50;92.50
10010;DHT22;5044;48.652;9.250;2023-04-24T23:24:06;7.10;92.50
10010;DHT22;5044;48.652;9.250;2023-04-24T23:26:34;7.10;92.10
10010;DHT22;5044;48.652;9.250;2023-04-24T23:29:02;7.10;92.30
10010;DHT22;5044;48.652;9.250;2023-04-24T23:31:31;7.00;92.70
10010;DHT22;5044;48.652;9.250;2023-04-24T23:33:58;7.10;92.60
10010;DHT22;5044;48.652;9.250;2023-04-24T23:36:28;7.10;94.50
10010;DHT22;5044;48.652;9.250;2023-04-24T23:38:57;7.10;94.90
10010;DHT22;5044;48.652;9.250;2023-04-24T23:41:25;7.10;93.20
10010;DHT22;5044;48.652;9.250;2023-04-24T23:44:00;7.10;93.00
10010;DHT22;5044;48.652;9.250;2023-04-24T23:46:27;7.20;95.00
10010;DHT22;5044;48.652;9.250;2023-04-24T23:48:57;7.10;93.50
10010;DHT22;5044;48.652;9.250;2023-04-24T23:51:25;7.20;94.10
10010;DHT22;5044;48.652;9.250;2023-04-24T23:53:53;7.00;93.10
10010;DHT22;5044;48.652;9.250;2023-04-24T23:56:20;7.10;95.20
10010;DHT22;5044;48.652;9.250;2023-04-24T23:58:49;7.20;99.70
